Marambaia, Brazil
Current Conditions -  °F | °C
As of 9:00 AM on Thursday 18 Dec 2014 (Local Time) from SBMK Reporting Station
Broken Clouds Broken Clouds  
Wind Chill: 75°   Ceiling: 2000
Heat Index: 75°   Visibility: 6mi
Dew Point: 63°   Wind: 7mph
Humidity: 65%   Direction: 70°ENE
Pressure: 29.97"   Gusts: NA
Location:  17.18°S, 41.58°W
Report Text: SBMK 181100Z 07006KT 040V110 9999 BKN020 24/17 Q1015
Loading
Personal Weather Stations






























Interactive Weather Map New forecast layout! Learn more

10-Day Weather Forecast

Advertisements
Track Severe Weather on mobile